Time;durP1;ratioP1;P1;durP2;ratioP2;P2;SDS_P1;SDS_P2;PMS_P1;PMS_P2;Temp;Humidity;BMP_temperature;BMP_pressure;BME280_temperature;BME280_humidity;BME280_pressure;Samples;Min_cycle;Max_cycle;Signal;HPM_P1;HPM_P2
2023/07/29 00:00:07;;;;;;;;;;;;;;;18.44;100.00;99836.34;5028499;28;20407;-78
2023/07/29 00:02:45;;;;;;;13.80;10.35;;;;;;;18.43;100.00;99826.59;5025798;28;19925;-79
2023/07/29 00:05:13;;;;;;;15.88;11.15;;;;;;;18.36;100.00;99820.09;5018235;28;20059;-78
2023/07/29 00:07:41;;;;;;;13.70;11.93;;;;;;;18.33;100.00;99823.06;5030251;28;20045;-77
2023/07/29 00:10:09;;;;;;;12.10;9.55;;;;;;;18.22;100.00;99799.88;5036048;28;20116;-81
2023/07/29 00:12:37;;;;;;;14.55;11.27;;;;;;;18.12;100.00;99771.31;5026729;28;20050;-78
2023/07/29 00:15:08;;;;;;;15.35;11.77;;;;;;;18.26;100.00;99787.03;5031277;28;20049;-77
2023/07/29 00:17:36;;;;;;;14.43;12.20;;;;;;;18.17;100.00;99786.03;5035691;28;20072;-77
2023/07/29 00:20:06;;;;;;;15.10;12.43;;;;;;;18.29;100.00;99812.72;5038476;28;20063;-77
2023/07/29 00:22:36;;;;;;;13.75;11.80;;;;;;;18.25;100.00;99800.59;4999200;28;20049;-77
2023/07/29 00:25:04;;;;;;;13.65;12.15;;;;;;;18.23;100.00;99801.59;5011946;28;20057;-77
2023/07/29 00:27:34;;;;;;;20.05;14.68;;;;;;;18.23;100.00;99800.72;5017697;28;20072;-76
2023/07/29 00:30:04;;;;;;;19.08;15.07;;;;;;;18.22;100.00;99801.72;5032517;28;20715;-76
2023/07/29 00:32:33;;;;;;;24.65;15.13;;;;;;;18.22;100.00;99788.31;5018480;28;20041;-77
2023/07/29 00:35:03;;;;;;;15.85;12.25;;;;;;;18.23;100.00;99788.19;5014927;28;20065;-77
2023/07/29 00:37:32;;;;;;;18.00;13.48;;;;;;;18.25;100.00;99782.69;5038781;28;20112;-77
2023/07/29 00:40:00;;;;;;;14.50;12.65;;;;;;;18.29;100.00;99781.41;5026297;28;20045;-77
2023/07/29 00:42:29;;;;;;;16.98;12.55;;;;;;;18.31;100.00;99775.91;5019591;28;20539;-77
2023/07/29 00:44:57;;;;;;;15.07;12.80;;;;;;;18.32;100.00;99772.25;5025309;28;20046;-78
2023/07/29 00:47:26;;;;;;;15.35;13.10;;;;;;;18.37;100.00;99775.38;5033115;28;20099;-78
2023/07/29 00:49:56;;;;;;;17.85;13.27;;;;;;;18.39;100.00;99768.91;5016254;28;20050;-77
2023/07/29 00:52:24;;;;;;;14.27;12.77;;;;;;;18.30;100.00;99748.25;5027306;28;20072;-77
2023/07/29 00:54:55;;;;;;;14.35;12.30;;;;;;;18.38;100.00;99761.84;5034734;28;20054;-77
2023/07/29 00:57:25;;;;;;;17.30;13.82;;;;;;;18.33;100.00;99761.41;5030638;28;20505;-77
2023/07/29 00:59:53;;;;;;;16.95;14.23;;;;;;;18.35;100.00;99762.13;5025901;28;20042;-78
2023/07/29 01:02:22;;;;;;;16.35;14.65;;;;;;;18.32;100.00;99761.53;5019045;28;20045;-79
2023/07/29 01:04:53;;;;;;;16.48;13.10;;;;;;;18.30;100.00;99759.00;5030147;28;20045;-77
2023/07/29 01:07:32;;;;;;;17.45;15.15;;;;;;;18.29;100.00;99757.28;5011874;28;20055;-78
2023/07/29 01:10:05;;;;;;;18.55;14.55;;;;;;;18.27;100.00;99758.41;5031813;28;20045;-77
2023/07/29 01:12:43;;;;;;;19.60;16.00;;;;;;;18.23;100.00;99758.69;5016002;28;20184;-77
2023/07/29 01:15:18;;;;;;;20.02;15.82;;;;;;;18.27;100.00;99759.25;5032372;28;20085;-77
2023/07/29 01:17:53;;;;;;;19.67;14.73;;;;;;;18.34;100.00;99759.56;5024871;28;20038;-77
2023/07/29 01:20:22;;;;;;;17.88;15.35;;;;;;;18.34;100.00;99763.09;5027964;28;20060;-78
2023/07/29 01:22:54;;;;;;;18.50;15.00;;;;;;;18.36;100.00;99760.28;5022355;28;20112;-78
2023/07/29 01:25:23;;;;;;;16.17;14.18;;;;;;;18.40;100.00;99753.69;5028939;28;20140;-78
2023/07/29 01:27:52;;;;;;;17.42;14.20;;;;;;;18.42;100.00;99752.53;5014329;28;20544;-78
2023/07/29 01:30:23;;;;;;;17.70;15.02;;;;;;;18.37;100.00;99740.53;5030704;28;20045;-80
2023/07/29 01:32:57;;;;;;;15.73;13.70;;;;;;;18.45;100.00;99746.91;5014698;28;20046;-78
2023/07/29 01:35:33;;;;;;;15.93;14.25;;;;;;;18.46;100.00;99751.28;5038065;28;20057;-77
2023/07/29 01:38:06;;;;;;;18.55;15.85;;;;;;;18.45;100.00;99746.91;5034572;28;20510;-76
2023/07/29 01:40:35;;;;;;;19.15;15.70;;;;;;;18.41;100.00;99745.50;5018166;28;20060;-77
2023/07/29 01:43:07;;;;;;;17.35;13.93;;;;;;;18.37;100.00;99748.56;5008463;28;20042;-78
2023/07/29 01:45:38;;;;;;;18.08;13.63;;;;;;;18.40;100.00;99743.78;5036802;28;20127;-78
2023/07/29 01:48:06;;;;;;;14.65;12.27;;;;;;;18.42;100.00;99731.06;5014713;28;20136;-77
2023/07/29 01:50:36;;;;;;;17.85;14.60;;;;;;;18.42;100.00;99738.28;5027411;28;20046;-76
2023/07/29 01:53:04;;;;;;;13.07;11.43;;;;;;;18.38;100.00;99734.19;5009932;28;20113;-77
2023/07/29 01:55:32;;;;;;;13.38;11.75;;;;;;;18.35;100.00;99732.63;5037173;28;20049;-78
2023/07/29 01:58:03;;;;;;;16.85;12.85;;;;;;;18.29;100.00;99724.28;5011936;28;20473;-77
2023/07/29 02:00:33;;;;;;;17.30;13.32;;;;;;;18.30;100.00;99737.53;5012092;28;20419;-77
2023/07/29 02:03:01;;;;;;;16.55;13.57;;;;;;;18.14;100.00;99713.09;5021813;28;20042;-77
2023/07/29 02:05:30;;;;;;;17.98;13.32;;;;;;;18.25;100.00;99734.44;5037723;28;20131;-77
2023/07/29 02:07:58;;;;;;;17.52;13.05;;;;;;;18.27;100.00;99726.25;5023124;28;20507;-77
2023/07/29 02:10:25;;;;;;;16.38;12.60;;;;;;;18.28;100.00;99726.13;5037687;28;20045;-78
2023/07/29 02:12:53;;;;;;;14.88;11.65;;;;;;;18.20;100.00;99717.91;5026069;28;20041;-77
2023/07/29 02:15:22;;;;;;;13.63;10.80;;;;;;;18.24;100.00;99727.41;5039684;28;20142;-78
2023/07/29 02:17:51;;;;;;;12.35;8.95;;;;;;;18.22;100.00;99721.31;5030399;28;20042;-77
2023/07/29 02:20:19;;;;;;;12.77;9.75;;;;;;;18.26;100.00;99722.72;5039119;28;20049;-77
2023/07/29 02:22:48;;;;;;;11.25;8.75;;;;;;;18.28;100.00;99718.06;5013707;28;20044;-78
2023/07/29 02:25:16;;;;;;;11.73;8.82;;;;;;;18.33;100.00;99715.84;5047607;28;20102;-77
2023/07/29 02:27:47;;;;;;;8.60;7.78;;;;;;;18.33;100.00;99704.25;5037055;28;20037;-78
2023/07/29 02:30:15;;;;;;;9.32;7.53;;;;;;;18.38;100.00;99710.06;5017767;28;20054;-77
2023/07/29 02:32:44;;;;;;;14.27;9.52;;;;;;;18.33;100.00;99704.25;5010873;28;20125;-78
2023/07/29 02:35:13;;;;;;;12.40;8.15;;;;;;;18.31;100.00;99704.41;5034696;28;20044;-77
2023/07/29 02:37:41;;;;;;;9.80;7.43;;;;;;;18.26;100.00;99698.59;5020586;28;20053;-77
2023/07/29 02:40:10;;;;;;;10.70;8.38;;;;;;;18.33;100.00;99704.25;5036551;28;20053;-81
2023/07/29 02:42:38;;;;;;;12.05;8.52;;;;;;;18.27;100.00;99700.28;5025826;28;20172;-75
2023/07/29 02:45:10;;;;;;;10.05;8.63;;;;;;;18.31;100.00;99711.59;5016960;28;20050;-77
2023/07/29 02:47:38;;;;;;;12.60;8.30;;;;;;;18.30;100.00;99713.44;5010839;28;20056;-78
2023/07/29 02:50:09;;;;;;;11.95;8.40;;;;;;;18.31;100.00;99711.59;5000250;28;20053;-75
2023/07/29 02:52:36;;;;;;;;;;;;;;;18.28;100.00;99711.84;5027987;28;20124;-76
2023/07/29 02:55:05;;;;;;;12.68;8.00;;;;;;;18.24;100.00;99700.59;5039115;28;19947;-76
2023/07/29 02:57:33;;;;;;;10.38;7.38;;;;;;;18.30;100.00;99694.66;5024838;28;20038;-75
2023/07/29 03:00:01;;;;;;;14.63;8.35;;;;;;;18.31;100.00;99693.69;5010548;28;20041;-75
2023/07/29 03:02:30;;;;;;;12.00;8.52;;;;;;;18.18;100.00;99680.53;5014655;28;20049;-75
2023/07/29 03:04:58;;;;;;;11.07;7.93;;;;;;;18.22;100.00;99691.84;5028917;28;20426;-74
2023/07/29 03:07:27;;;;;;;11.85;7.95;;;;;;;18.18;100.00;99679.69;5012832;28;20088;-75
2023/07/29 03:09:55;;;;;;;12.70;8.57;;;;;;;18.22;100.00;99687.31;5028537;28;20041;-75
2023/07/29 03:12:23;;;;;;;9.98;7.35;;;;;;;18.24;100.00;99679.16;4998562;28;20600;-74
2023/07/29 03:14:51;;;;;;;10.70;7.78;;;;;;;18.30;100.00;99678.56;5029394;28;20095;-75
2023/07/29 03:17:21;;;;;;;9.93;7.43;;;;;;;18.30;100.00;99675.06;4997917;28;20055;-75
2023/07/29 03:19:50;;;;;;;8.23;6.40;;;;;;;18.25;100.00;99663.91;5031112;28;20049;-74
2023/07/29 03:22:17;;;;;;;7.35;6.03;;;;;;;18.30;100.00;99677.72;5017920;28;20042;-74
2023/07/29 03:24:47;;;;;;;7.15;5.57;;;;;;;18.22;100.00;99657.84;5005790;28;20478;-75
2023/07/29 03:27:15;;;;;;;6.87;6.13;;;;;;;18.24;100.00;99663.06;5026073;28;20053;-74
2023/07/29 03:29:44;;;;;;;6.50;5.75;;;;;;;18.20;100.00;99659.81;5007716;28;20049;-74
2023/07/29 03:32:12;;;;;;;6.90;5.63;;;;;;;18.22;100.00;99657.00;5020825;28;20057;-74
2023/07/29 03:34:41;;;;;;;6.63;5.75;;;;;;;18.18;100.00;99667.13;5023149;28;20136;-75
2023/07/29 03:37:09;;;;;;;8.38;6.15;;;;;;;18.17;100.00;99668.13;5022025;28;20081;-75
2023/07/29 03:39:37;;;;;;;7.05;5.38;;;;;;;18.15;100.00;99661.19;5028784;28;20046;-75
2023/07/29 03:42:09;;;;;;;8.40;5.97;;;;;;;18.14;100.00;99668.41;5030072;28;20496;-75
2023/07/29 03:44:39;;;;;;;6.35;5.72;;;;;;;18.14;100.00;99668.41;5004661;28;20254;-75
2023/07/29 03:47:07;;;;;;;7.65;5.68;;;;;;;18.06;100.00;99652.16;5030537;28;20494;-75
2023/07/29 03:49:36;;;;;;;7.35;6.15;;;;;;;18.13;100.00;99668.53;5030635;28;20671;-74
2023/07/29 03:52:05;;;;;;;7.57;6.55;;;;;;;18.09;100.00;99659.94;5013575;28;20052;-74
2023/07/29 03:54:34;;;;;;;8.18;6.65;;;;;;;18.16;100.00;99665.59;5025486;28;20064;-74
2023/07/29 03:57:03;;;;;;;9.35;7.15;;;;;;;18.17;100.00;99672.63;5029627;28;20058;-75
2023/07/29 03:59:35;;;;;;;8.15;7.22;;;;;;;18.17;100.00;99651.19;5024639;28;20054;-75
2023/07/29 04:02:03;;;;;;;8.10;7.13;;;;;;;18.07;100.00;99635.13;5027675;28;20046;-74
2023/07/29 04:04:32;;;;;;;9.35;7.18;;;;;;;18.06;100.00;99630.75;5006317;28;20175;-75
2023/07/29 04:07:01;;;;;;;7.80;7.00;;;;;;;18.18;100.00;99648.38;5029764;28;20519;-74
2023/07/29 04:09:29;;;;;;;10.55;8.38;;;;;;;18.20;100.00;99653.59;5010269;28;20067;-74
2023/07/29 04:11:57;;;;;;;10.55;7.88;;;;;;;18.17;100.00;99651.19;5000627;28;20053;-74
2023/07/29 04:14:25;;;;;;;13.15;9.65;;;;;;;18.15;100.00;99664.72;5022027;28;20472;-74
2023/07/29 04:16:54;;;;;;;10.15;9.07;;;;;;;18.10;100.00;99658.94;5012978;28;20514;-74
2023/07/29 04:19:22;;;;;;;13.23;10.73;;;;;;;18.10;100.00;99666.16;5016797;28;20054;-75
2023/07/29 04:21:51;;;;;;;10.93;9.23;;;;;;;18.10;100.00;99666.16;5024592;28;20475;-74
2023/07/29 04:24:20;;;;;;;16.00;11.27;;;;;;;18.12;100.00;99667.69;5002927;28;20050;-74
2023/07/29 04:26:48;;;;;;;17.80;11.63;;;;;;;18.11;100.00;99665.97;5042846;28;20119;-74
2023/07/29 04:29:16;;;;;;;13.68;10.38;;;;;;;18.13;100.00;99660.50;5020484;28;20052;-73
2023/07/29 04:31:44;;;;;;;10.60;9.25;;;;;;;18.17;100.00;99656.56;4993417;28;20498;-74
2023/07/29 04:34:13;;;;;;;11.10;9.77;;;;;;;18.23;100.00;99659.53;4998677;28;20576;-74
2023/07/29 04:36:42;;;;;;;11.73;9.70;;;;;;;18.28;100.00;99647.53;5001104;28;20426;-74
2023/07/29 04:39:10;;;;;;;13.63;9.95;;;;;;;18.30;100.00;99646.41;5002905;28;20056;-74
2023/07/29 04:41:38;;;;;;;11.57;9.52;;;;;;;18.33;100.00;99645.31;5026575;28;20056;-74
2023/07/29 04:44:06;;;;;;;13.68;11.48;;;;;;;18.37;100.00;99636.84;5018984;28;20045;-74
2023/07/29 04:46:36;;;;;;;12.95;11.32;;;;;;;18.39;100.00;99645.59;5023656;28;20053;-74
2023/07/29 04:49:05;;;;;;;14.32;11.10;;;;;;;18.39;100.00;99650.13;5011890;28;20180;-74
2023/07/29 04:51:34;;;;;;;12.85;11.25;;;;;;;18.40;100.00;99649.13;5025341;28;20046;-74
2023/07/29 04:54:04;;;;;;;12.30;11.02;;;;;;;18.39;100.00;99650.13;5018803;28;20053;-75
2023/07/29 04:56:32;;;;;;;12.67;10.57;;;;;;;18.42;100.00;99647.97;5023217;28;20053;-73
2023/07/29 04:59:00;;;;;;;11.65;10.55;;;;;;;18.37;100.00;99639.53;5025938;28;20491;-74
2023/07/29 05:01:27;;;;;;;12.85;11.10;;;;;;;18.45;100.00;99649.53;5022265;28;20103;-75
2023/07/29 05:03:56;;;;;;;12.52;11.32;;;;;;;18.46;100.00;99645.88;5018004;28;21074;-73
2023/07/29 05:06:24;;;;;;;12.75;11.38;;;;;;;18.46;100.00;99643.19;5027483;28;20049;-74
2023/07/29 05:08:53;;;;;;;13.57;11.90;;;;;;;18.52;100.00;99640.81;5022578;28;20046;-74
2023/07/29 05:11:25;;;;;;;14.68;13.23;;;;;;;18.55;100.00;99637.00;5020244;28;20041;-74
2023/07/29 05:13:53;;;;;;;14.48;13.18;;;;;;;18.51;100.00;99625.69;5031136;28;20438;-75
2023/07/29 05:16:21;;;;;;;14.38;12.88;;;;;;;18.56;100.00;99642.22;5027057;28;20064;-75
2023/07/29 05:18:49;;;;;;;16.90;13.05;;;;;;;18.59;100.00;99641.09;5010961;28;20049;-74
2023/07/29 05:21:17;;;;;;;14.00;12.50;;;;;;;18.61;100.00;99644.50;5022348;28;20046;-74
2023/07/29 05:23:45;;;;;;;13.50;11.57;;;;;;;18.66;100.00;99633.34;4998948;28;20052;-74
2023/07/29 05:26:15;;;;;;;12.20;10.52;;;;;;;18.70;100.00;99632.09;5028099;28;20505;-75
2023/07/29 05:28:43;;;;;;;12.33;10.10;;;;;;;18.75;100.00;99629.81;5005005;28;20072;-74
2023/07/29 05:31:11;;;;;;;12.10;10.70;;;;;;;18.74;100.00;99645.06;5009959;28;20484;-74
2023/07/29 05:33:39;;;;;;;12.57;10.65;;;;;;;18.68;100.00;99648.31;5020801;28;20128;-74
2023/07/29 05:36:08;;;;;;;10.73;9.60;;;;;;;18.56;100.00;99646.75;5022295;28;20050;-75
2023/07/29 05:38:36;;;;;;;12.88;11.35;;;;;;;18.55;100.00;99655.78;5024029;28;20569;-75
2023/07/29 05:41:04;;;;;;;11.98;10.30;;;;;;;18.53;100.00;99663.09;5029357;28;20123;-74
2023/07/29 05:43:36;;;;;;;10.80;9.32;;;;;;;18.53;100.00;99663.94;5026230;28;20061;-74
2023/07/29 05:46:04;;;;;;;11.82;10.73;;;;;;;18.54;100.00;99671.00;5028817;28;20703;-74
2023/07/29 05:48:33;;;;;;;13.60;9.60;;;;;;;18.45;100.00;99671.81;5024225;28;20116;-75
2023/07/29 05:51:05;;;;;;;11.20;8.98;;;;;;;18.55;100.00;99671.84;5030211;28;20111;-75
2023/07/29 05:53:33;;;;;;;13.65;10.00;;;;;;;18.53;100.00;99674.69;5027730;28;20114;-74
2023/07/29 05:56:05;;;;;;;10.52;9.52;;;;;;;18.50;100.00;99674.94;5015988;28;20042;-75
2023/07/29 05:58:33;;;;;;;10.70;8.88;;;;;;;18.40;100.00;99649.97;5030977;28;20562;-75
2023/07/29 06:01:02;;;;;;;10.82;9.73;;;;;;;18.63;100.00;99684.56;5026524;28;20103;-75
2023/07/29 06:03:31;;;;;;;13.23;11.73;;;;;;;18.62;100.00;99689.09;5008751;28;20232;-74
2023/07/29 06:05:59;;;;;;;13.25;11.75;;;;;;;18.58;100.00;99691.19;5008112;28;20041;-75
2023/07/29 06:08:29;;;;;;;11.15;10.00;;;;;;;18.56;100.00;99687.81;5030857;28;20045;-75
2023/07/29 06:10:57;;;;;;;12.80;11.48;;;;;;;18.59;100.00;99684.00;5028945;28;20465;-75
2023/07/29 06:13:25;;;;;;;13.45;11.95;;;;;;;18.63;100.00;99692.63;5030561;28;20807;-75
2023/07/29 06:15:52;;;;;;;16.83;13.05;;;;;;;18.62;100.00;99698.97;5024103;28;20053;-75
2023/07/29 06:18:22;;;;;;;15.95;13.93;;;;;;;18.55;100.00;99691.47;5033192;28;20053;-77
2023/07/29 06:20:50;;;;;;;15.88;14.27;;;;;;;18.46;100.00;99683.41;5018714;28;20571;-75
2023/07/29 06:23:18;;;;;;;16.48;14.77;;;;;;;18.31;100.00;99680.28;5026111;28;20045;-75
2023/07/29 06:25:46;;;;;;;20.88;16.38;;;;;;;18.29;100.00;99702.84;5021006;28;20049;-76
2023/07/29 06:28:14;;;;;;;20.13;18.02;;;;;;;18.19;100.00;99705.50;5026447;28;20576;-75
2023/07/29 06:30:42;;;;;;;18.70;16.80;;;;;;;18.17;100.00;99710.16;5034121;28;20037;-75
2023/07/29 06:33:11;;;;;;;21.65;18.92;;;;;;;18.18;100.00;99704.66;5033732;28;20045;-75
2023/07/29 06:35:43;;;;;;;18.43;16.43;;;;;;;18.22;100.00;99681.13;5008575;28;20046;-75
2023/07/29 06:38:11;;;;;;;18.45;16.20;;;;;;;18.26;100.00;99673.66;5036393;28;20457;-76
2023/07/29 06:40:39;;;;;;;17.08;15.27;;;;;;;18.32;100.00;99662.38;5028319;28;20140;-76
2023/07/29 06:43:07;;;;;;;15.32;13.82;;;;;;;18.37;100.00;99677.06;5030911;28;20045;-76
2023/07/29 06:45:35;;;;;;;14.43;13.02;;;;;;;18.42;100.00;99679.28;5027588;28;20056;-76
2023/07/29 06:48:03;;;;;;;13.63;12.30;;;;;;;18.40;100.00;99667.88;5016343;28;20057;-77
2023/07/29 06:50:32;;;;;;;11.88;10.68;;;;;;;18.37;100.00;99657.44;5011188;28;20096;-76
2023/07/29 06:53:01;;;;;;;12.00;10.73;;;;;;;18.48;100.00;99682.28;5030778;28;20042;-76
2023/07/29 06:55:29;;;;;;;10.53;9.53;;;;;;;18.43;100.00;99676.47;5020620;28;20130;-76
2023/07/29 06:57:57;;;;;;;8.50;7.65;;;;;;;18.50;100.00;99693.72;5027832;28;20060;-76
2023/07/29 07:00:25;;;;;;;10.27;9.25;;;;;;;18.40;100.00;99687.50;5027601;28;20049;-76
2023/07/29 07:02:53;;;;;;;10.60;9.52;;;;;;;18.43;100.00;99697.06;5030847;28;20053;-75
2023/07/29 07:05:23;;;;;;;9.80;8.90;;;;;;;18.37;100.00;99684.25;5023694;28;20703;-76
2023/07/29 07:07:51;;;;;;;11.52;10.23;;;;;;;18.44;100.00;99688.06;5028654;28;20064;-76
2023/07/29 07:10:21;;;;;;;11.52;10.38;;;;;;;18.42;100.00;99685.50;5028415;28;20049;-76
2023/07/29 07:12:49;;;;;;;11.07;9.97;;;;;;;18.42;100.00;99693.53;5014575;28;20505;-76
2023/07/29 07:15:17;;;;;;;12.88;11.10;;;;;;;18.35;100.00;99660.25;5022486;28;20049;-76
2023/07/29 07:17:46;;;;;;;15.13;13.20;;;;;;;18.47;100.00;99645.72;5030851;28;20409;-76
2023/07/29 07:20:14;;;;;;;13.07;11.67;;;;;;;18.49;100.00;99661.69;5025593;28;20103;-75
2023/07/29 07:22:43;;;;;;;16.48;14.77;;;;;;;18.46;100.00;99689.59;4998497;28;20471;-75
2023/07/29 07:25:11;;;;;;;17.08;15.27;;;;;;;18.43;100.00;99678.31;5014337;28;20062;-74
2023/07/29 07:27:41;;;;;;;20.48;15.70;;;;;;;18.52;100.00;99694.44;5013837;28;20045;-76
2023/07/29 07:30:09;;;;;;;17.13;15.43;;;;;;;18.61;100.00;99699.94;5024911;28;20050;-74
2023/07/29 07:32:40;;;;;;;18.30;16.40;;;;;;;18.64;100.00;99703.22;5022931;28;20060;-75
2023/07/29 07:35:09;;;;;;;21.58;18.45;;;;;;;18.61;100.00;99711.53;5016723;28;20136;-73
2023/07/29 07:37:36;;;;;;;18.95;16.88;;;;;;;18.53;100.00;99698.81;5033092;28;20060;-74
2023/07/29 07:40:05;;;;;;;20.55;16.52;;;;;;;18.63;100.00;99703.34;5031936;28;20103;-74
2023/07/29 07:42:34;;;;;;;19.07;16.03;;;;;;;18.68;100.00;99698.41;5025107;28;20049;-72
2023/07/29 07:45:03;;;;;;;18.90;15.70;;;;;;;18.77;100.00;99713.66;5017888;28;20061;-73
2023/07/29 07:47:32;;;;;;;16.98;15.15;;;;;;;18.79;100.00;99711.69;5027768;28;20055;-75
2023/07/29 07:50:00;;;;;;;18.77;16.27;;;;;;;18.76;100.00;99714.66;4998483;28;20116;-75
2023/07/29 07:52:29;;;;;;;18.10;16.27;;;;;;;18.69;100.00;99714.38;5025797;28;20409;-75
2023/07/29 07:54:56;;;;;;;22.42;19.20;;;;;;;18.61;100.00;99734.81;5020914;28;20100;-74
2023/07/29 07:57:24;;;;;;;23.83;18.92;;;;;;;18.54;100.00;99718.41;5029146;28;20040;-74
2023/07/29 07:59:52;;;;;;;22.25;18.33;;;;;;;18.56;100.00;99736.06;5033831;28;20065;-75
2023/07/29 08:02:22;;;;;;;24.88;18.30;;;;;;;18.57;100.00;99718.16;5030002;28;20092;-75
2023/07/29 08:04:50;;;;;;;;;;;;;;;18.77;100.00;99729.75;5028813;28;20055;-75
2023/07/29 08:07:18;;;;;;;21.20;18.13;;;;;;;18.69;100.00;99721.56;5007291;28;19928;-75
2023/07/29 08:09:46;;;;;;;26.45;22.63;;;;;;;18.58;100.00;99719.81;5026284;28;20069;-74
2023/07/29 08:12:14;;;;;;;21.75;19.55;;;;;;;18.61;100.00;99734.81;5032351;28;20068;-75
2023/07/29 08:14:46;;;;;;;23.05;20.60;;;;;;;18.65;100.00;99736.25;5027567;28;20057;-73
2023/07/29 08:17:13;;;;;;;23.38;19.10;;;;;;;18.74;100.00;99740.75;5031452;28;20466;-74
2023/07/29 08:19:43;;;;;;;23.10;19.60;;;;;;;18.94;100.00;99737.09;5008926;28;20107;-74
2023/07/29 08:22:11;;;;;;;20.17;18.17;;;;;;;19.03;100.00;99730.91;5028366;28;20049;-74
2023/07/29 08:24:39;;;;;;;20.30;17.73;;;;;;;19.15;100.00;99731.59;5023046;28;20046;-73
2023/07/29 08:27:07;;;;;;;18.77;16.83;;;;;;;19.33;100.00;99726.34;5021514;28;20041;-74
2023/07/29 08:29:37;;;;;;;16.17;14.57;;;;;;;19.46;100.00;99726.88;5029882;28;20048;-73
2023/07/29 08:32:05;;;;;;;15.98;14.38;;;;;;;19.65;100.00;99731.41;5031233;28;20111;-74
2023/07/29 08:34:33;;;;;;;12.60;11.35;;;;;;;19.91;100.00;99738.66;5024786;28;20140;-73
2023/07/29 08:37:02;;;;;;;13.13;11.35;;;;;;;20.01;100.00;99716.25;5037279;28;20049;-74
2023/07/29 08:39:31;;;;;;;13.90;12.48;;;;;;;20.48;100.00;99714.31;5025931;28;20045;-74
2023/07/29 08:42:05;;;;;;;11.82;10.63;;;;;;;20.84;100.00;99712.50;5023458;28;20054;-75
2023/07/29 08:44:40;;;;;;;9.88;8.60;;;;;;;20.89;100.00;99697.59;5007901;28;20054;-75
2023/07/29 08:47:10;;;;;;;10.45;7.97;;;;;;;21.03;100.00;99709.66;5024764;28;20044;-75
2023/07/29 08:49:39;;;;;;;7.25;5.57;;;;;;;20.81;100.00;99723.56;5031903;28;20057;-75
2023/07/29 08:52:10;;;;;;;5.57;4.77;;;;;;;20.71;100.00;99728.19;5024775;28;20465;-75
2023/07/29 08:54:38;;;;;;;5.25;4.75;;;;;;;20.82;100.00;99727.97;5025163;28;20045;-75
2023/07/29 08:57:07;;;;;;;5.25;4.32;;;;;;;20.92;100.00;99723.38;5019733;28;20048;-75
2023/07/29 08:59:35;;;;;;;3.85;3.55;;;;;;;20.82;100.00;99712.66;5025782;28;20572;-75
2023/07/29 09:02:04;;;;;;;3.78;3.10;;;;;;;20.89;100.00;99719.13;5026268;28;20049;-76
2023/07/29 09:04:32;;;;;;;3.05;2.75;;;;;;;20.96;100.00;99716.66;5020354;28;20136;-75
2023/07/29 09:07:01;;;;;;;2.63;2.42;;;;;;;21.21;100.00;99721.28;5021888;28;20102;-75
2023/07/29 09:09:30;;;;;;;7.03;2.60;;;;;;;21.28;100.00;99718.78;5030470;28;20091;-75
2023/07/29 09:11:58;;;;;;;2.63;2.42;;;;;;;21.42;100.00;99720.06;5033691;28;20067;-75
2023/07/29 09:14:29;;;;;;;6.07;2.67;;;;;;;21.59;100.00;99716.50;5033956;28;20124;-74
2023/07/29 09:16:57;;;;;;;3.58;1.92;;;;;;;21.21;100.00;99699.75;5028209;28;20049;-75
2023/07/29 09:19:26;;;;;;;2.25;1.95;;;;;;;21.05;100.00;99712.19;5031555;28;20060;-75
2023/07/29 09:21:55;;;;;;;2.17;1.75;;;;;;;21.02;100.00;99716.03;5021726;28;20139;-75
2023/07/29 09:24:24;;;;;;;2.42;2.03;;;;;;;21.17;100.00;99727.94;5031607;28;20049;-75
2023/07/29 09:26:54;;;;;;;1.60;1.50;;;;;;;21.25;100.00;99724.53;5021644;28;20111;-75
2023/07/29 09:29:24;;;;;;;3.22;2.08;;;;;;;21.34;100.00;99716.34;5024713;28;20050;-74
2023/07/29 09:31:52;;;;;;;2.00;1.40;;;;;;;21.33;100.00;99711.94;5017071;28;20195;-74
2023/07/29 09:34:20;;;;;;;2.28;1.63;;;;;;;21.40;100.00;99706.78;5005846;28;20060;-74
2023/07/29 09:36:51;;;;;;;3.22;1.27;;;;;;;21.30;100.00;99709.56;5022075;28;20061;-74
2023/07/29 09:39:23;;;;;;;1.23;1.13;;;;;;;21.28;100.00;99713.41;5032571;28;20768;-74
2023/07/29 09:41:53;;;;;;;1.52;1.30;;;;;;;21.34;100.00;99716.34;5031595;28;20052;-75
2023/07/29 09:44:21;;;;;;;2.17;1.20;;;;;;;21.61;100.00;99717.19;5032737;28;20525;-76
2023/07/29 09:46:49;;;;;;;2.00;1.20;;;;;;;21.79;100.00;99717.97;5018398;28;20065;-76
2023/07/29 09:49:17;;;;;;;1.98;1.10;;;;;;;21.77;100.00;99709.19;5033659;28;20045;-76
2023/07/29 09:51:45;;;;;;;2.03;1.25;;;;;;;22.00;100.00;99723.00;5034605;28;20110;-77
2023/07/29 09:54:15;;;;;;;3.03;1.10;;;;;;;22.03;100.00;99720.84;5028301;28;20095;-76
2023/07/29 09:56:44;;;;;;;1.65;1.00;;;;;;;21.82;100.00;99720.34;5010156;28;20045;-76
2023/07/29 09:59:14;;;;;;;1.08;0.98;;;;;;;21.63;100.00;99728.66;5031153;28;20054;-77
2023/07/29 10:01:43;;;;;;;2.67;1.43;;;;;;;21.64;100.00;99730.34;5033111;28;20159;-77
2023/07/29 10:04:12;;;;;;;2.08;1.73;;;;;;;21.88;100.00;99716.19;5034652;28;21081;-77
2023/07/29 10:06:44;;;;;;;3.22;1.20;;;;;;;22.05;100.00;99708.00;5026844;28;20048;-76
2023/07/29 10:09:13;;;;;;;1.83;1.10;;;;;;;22.26;100.00;99710.28;5035568;28;20091;-77
2023/07/29 10:11:43;;;;;;;1.83;1.00;;;;;;;22.37;100.00;99711.84;5033462;28;20061;-77
2023/07/29 10:14:12;;;;;;;3.88;0.98;;;;;;;22.69;100.00;99706.50;5045429;28;20132;-78
2023/07/29 10:16:42;;;;;;;2.63;1.42;;;;;;;22.97;100.00;99709.81;5018274;28;20050;-78
2023/07/29 10:19:12;;;;;;;2.03;1.45;;;;;;;23.05;100.00;99708.94;5019857;28;20072;-77
2023/07/29 10:21:44;;;;;;;3.08;1.30;;;;;;;23.18;100.00;99693.06;5036669;28;20117;-77
2023/07/29 10:24:20;;;;;;;1.65;1.20;;;;;;;23.07;100.00;99704.22;5029975;28;20046;-78
2023/07/29 10:26:51;;;;;;;1.42;1.23;;;;;;;22.68;100.00;99696.72;5019404;28;20073;-78
2023/07/29 10:29:21;;;;;;;3.17;1.38;;;;;;;22.45;100.00;99700.25;5040682;28;20135;-77
2023/07/29 10:31:53;;;;;;;;;;;;;;;22.52;100.00;99696.69;5028070;28;20045;-77
2023/07/29 10:34:22;;;;;;;1.70;1.30;;;;;;;22.63;100.00;99682.91;5032831;28;19925;-77
2023/07/29 10:36:51;;;;;;;1.95;1.60;;;;;;;22.77;100.00;99694.09;5008064;28;20133;-77
2023/07/29 10:39:21;;;;;;;1.35;1.25;;;;;;;22.60;100.00;99690.50;5013032;28;20049;-77
2023/07/29 10:41:57;;;;;;;1.20;1.07;;;;;;;22.56;100.00;99700.75;5026790;28;20108;-78
2023/07/29 10:44:49;;;;;;;2.20;1.20;;;;;;;22.44;100.00;99695.84;5037109;28;20042;-77
2023/07/29 10:47:21;;;;;;;1.30;1.20;;;;;;;22.65;100.00;99694.38;5009431;28;20055;-78
2023/07/29 10:49:51;;;;;;;2.28;1.20;;;;;;;22.74;100.00;99697.94;5036219;28;20103;-78
2023/07/29 10:52:30;;;;;;;2.72;1.50;;;;;;;22.98;100.00;99687.16;5035885;28;20037;-77
2023/07/29 10:55:00;;;;;;;1.55;1.35;;;;;;;23.15;100.00;99696.13;5031427;28;20049;-78
2023/07/29 10:57:33;;;;;;;1.35;1.10;;;;;;;23.34;100.00;99694.91;5010516;28;20099;-77
2023/07/29 11:00:05;;;;;;;1.20;1.10;;;;;;;23.28;100.00;99674.84;5036599;28;20049;-77
2023/07/29 11:02:39;;;;;;;1.48;1.20;;;;;;;23.18;100.00;99674.16;5023217;28;20533;-77
2023/07/29 11:05:08;;;;;;;2.85;1.20;;;;;;;23.15;100.00;99685.31;5026708;28;20052;-77
2023/07/29 11:07:45;;;;;;;1.75;1.20;;;;;;;22.80;100.00;99682.97;5021690;28;20045;-77
2023/07/29 11:10:16;;;;;;;3.20;1.70;;;;;;;22.58;100.00;99687.94;5035492;28;20052;-77
2023/07/29 11:12:47;;;;;;;5.50;2.10;;;;;;;22.48;100.00;99681.88;5032956;28;20141;-77
2023/07/29 11:15:18;;;;;;;7.05;2.35;;;;;;;22.05;100.00;99677.50;5021792;28;20048;-76
2023/07/29 11:17:49;;;;;;;2.78;1.88;;;;;;;21.73;100.00;99670.09;5003960;28;20492;-77
2023/07/29 11:20:19;;;;;;;4.68;2.00;;;;;;;21.75;100.00;99668.09;5018021;28;20063;-76
2023/07/29 11:22:48;;;;;;;2.95;1.80;;;;;;;21.86;100.00;99691.22;5021790;28;20111;-76
2023/07/29 11:25:17;;;;;;;2.47;1.95;;;;;;;21.99;100.00;99689.81;5031391;28;20095;-79